createdAt,value
2019-01-15T00:02:13.938Z,3.37
2019-01-15T00:04:42.521Z,3.58
2019-01-15T00:07:11.127Z,3.74
2019-01-15T00:09:39.668Z,3.81
2019-01-15T00:12:08.336Z,3.88
2019-01-15T00:14:37.009Z,3.86
2019-01-15T00:17:05.596Z,3.84
2019-01-15T00:19:34.211Z,3.88
2019-01-15T00:22:02.823Z,3.82
2019-01-15T00:24:31.411Z,4.04
2019-01-15T00:27:00.124Z,3.91
2019-01-15T00:29:28.700Z,3.45
2019-01-15T00:31:57.305Z,3.32
2019-01-15T00:34:25.993Z,3.08
2019-01-15T00:36:54.547Z,3.02
2019-01-15T00:39:23.110Z,3.13
2019-01-15T00:41:51.726Z,3.19
2019-01-15T00:44:21.114Z,3.40
2019-01-15T00:46:49.717Z,3.54
2019-01-15T00:49:18.261Z,3.64
2019-01-15T00:51:46.730Z,3.66
2019-01-15T00:54:15.366Z,3.67
2019-01-15T00:56:43.927Z,3.70
2019-01-15T00:59:12.445Z,3.76
2019-01-15T01:01:41.066Z,3.90
2019-01-15T01:04:09.647Z,3.67
2019-01-15T01:06:38.254Z,3.31
2019-01-15T01:09:10.276Z,3.14
2019-01-15T01:11:38.897Z,3.11
2019-01-15T01:14:07.580Z,3.11
2019-01-15T01:16:36.121Z,3.20
2019-01-15T01:19:04.747Z,3.37
2019-01-15T01:21:33.345Z,3.50
2019-01-15T01:24:01.869Z,3.50
2019-01-15T01:26:30.514Z,3.63
2019-01-15T01:28:59.136Z,3.64
2019-01-15T01:31:27.728Z,3.65
2019-01-15T01:33:56.360Z,3.63
2019-01-15T01:36:24.911Z,3.76
2019-01-15T01:38:53.502Z,3.69
2019-01-15T01:41:22.116Z,3.49
2019-01-15T01:43:51.486Z,3.42
2019-01-15T01:46:20.132Z,3.32
2019-01-15T01:48:48.727Z,3.33
2019-01-15T01:51:17.357Z,3.40
2019-01-15T01:53:45.966Z,3.45
2019-01-15T01:56:14.570Z,3.51
2019-01-15T01:58:43.257Z,3.52
2019-01-15T02:01:11.765Z,3.66
2019-01-15T02:03:40.369Z,3.66
2019-01-15T02:06:08.937Z,3.76
2019-01-15T02:08:37.500Z,3.80
2019-01-15T02:11:06.095Z,3.93
2019-01-15T02:13:34.712Z,4.09
2019-01-15T02:16:03.296Z,3.93
2019-01-15T02:18:31.896Z,3.57
2019-01-15T02:21:00.465Z,3.46
2019-01-15T02:23:28.951Z,3.43
2019-01-15T02:25:57.428Z,3.50
2019-01-15T02:28:26.099Z,3.58
2019-01-15T02:30:54.704Z,3.64
2019-01-15T02:33:23.245Z,3.73
2019-01-15T02:35:54.475Z,3.72
2019-01-15T02:38:23.081Z,3.72
2019-01-15T02:40:51.705Z,3.67
2019-01-15T02:43:20.224Z,3.59
2019-01-15T02:45:48.844Z,3.68
2019-01-15T02:48:17.457Z,3.93
2019-01-15T02:50:46.091Z,3.96
2019-01-15T02:53:14.600Z,3.71
2019-01-15T02:55:43.176Z,3.54
2019-01-15T02:58:11.841Z,3.46
2019-01-15T03:00:40.491Z,3.54
2019-01-15T03:03:09.033Z,3.72
2019-01-15T03:05:37.649Z,3.79
2019-01-15T03:08:06.260Z,3.93
2019-01-15T03:10:34.851Z,4.03
2019-01-15T03:13:03.787Z,4.01
2019-01-15T03:15:32.475Z,4.05
2019-01-15T03:18:01.073Z,4.06
2019-01-15T03:20:29.680Z,4.14
2019-01-15T03:22:58.314Z,4.23
2019-01-15T03:25:26.936Z,4.25
2019-01-15T03:27:55.456Z,4.09
2019-01-15T03:30:24.808Z,3.91
2019-01-15T03:32:53.697Z,3.73
2019-01-15T03:35:22.330Z,3.77
2019-01-15T03:37:52.218Z,3.81
2019-01-15T03:40:23.461Z,3.89
2019-01-15T03:42:52.579Z,4.01
2019-01-15T03:45:21.993Z,4.05
2019-01-15T03:47:50.627Z,4.19
2019-01-15T03:50:19.189Z,4.30
2019-01-15T03:52:47.814Z,4.44
2019-01-15T03:55:16.992Z,4.41
2019-01-15T03:57:45.705Z,4.46
2019-01-15T04:00:19.547Z,4.62
2019-01-15T04:02:48.305Z,4.61
2019-01-15T04:05:17.619Z,4.29
2019-01-15T04:07:47.890Z,3.99
2019-01-15T04:10:16.480Z,3.75
2019-01-15T04:12:45.067Z,3.69
2019-01-15T04:15:14.281Z,3.71
2019-01-15T04:17:43.208Z,3.79
2019-01-15T04:20:16.418Z,3.90
2019-01-15T04:22:45.105Z,4.00
2019-01-15T04:25:14.943Z,4.04
2019-01-15T04:27:43.626Z,4.15
2019-01-15T04:30:14.921Z,4.16
2019-01-15T04:32:43.880Z,4.16
2019-01-15T04:35:12.556Z,4.19
2019-01-15T04:37:41.193Z,4.37
2019-01-15T04:40:15.509Z,4.15
2019-01-15T04:42:44.145Z,3.96
2019-01-15T04:45:17.965Z,3.75
2019-01-15T04:47:46.600Z,3.72
2019-01-15T04:50:15.963Z,3.76
2019-01-15T04:52:46.894Z,3.78
2019-01-15T04:55:15.619Z,3.89
2019-01-15T04:57:44.266Z,3.86
2019-01-15T05:00:20.689Z,3.79
2019-01-15T05:02:49.676Z,3.82
2019-01-15T05:05:18.518Z,3.80
2019-01-15T05:07:47.109Z,3.81
2019-01-15T05:10:16.665Z,3.82
2019-01-15T05:12:45.209Z,4.13
2019-01-15T05:15:15.627Z,4.13
2019-01-15T05:17:44.352Z,3.94
2019-01-15T05:20:15.823Z,3.78
2019-01-15T05:22:44.457Z,3.66
2019-01-15T05:25:15.542Z,3.68
2019-01-15T05:27:44.092Z,3.78
2019-01-15T05:30:15.716Z,3.91
2019-01-15T05:32:44.313Z,4.09
2019-01-15T05:35:13.206Z,4.22
2019-01-15T05:37:41.819Z,4.34
2019-01-15T05:40:12.801Z,4.39
2019-01-15T05:42:41.625Z,4.45
2019-01-15T05:45:15.099Z,4.44
2019-01-15T05:47:43.998Z,4.48
2019-01-15T05:50:14.358Z,4.80
2019-01-15T05:52:42.962Z,4.64
2019-01-15T05:55:11.548Z,4.34
2019-01-15T05:57:40.117Z,4.19
2019-01-15T06:00:14.735Z,4.12
2019-01-15T06:02:43.276Z,4.29
2019-01-15T06:05:13.678Z,4.36
2019-01-15T06:07:42.234Z,4.40
2019-01-15T06:10:16.969Z,4.44
2019-01-15T06:12:45.660Z,4.56
2019-01-15T06:15:15.900Z,4.54
2019-01-15T06:17:44.538Z,4.50
2019-01-15T06:20:21.344Z,4.56
2019-01-15T06:22:49.937Z,4.70
2019-01-15T06:25:18.460Z,4.97
2019-01-15T06:27:47.288Z,4.95
2019-01-15T06:30:20.611Z,4.78
2019-01-15T06:32:50.134Z,4.55
2019-01-15T06:35:18.964Z,4.55
2019-01-15T06:37:47.697Z,4.65
2019-01-15T06:40:18.266Z,4.77
2019-01-15T06:42:46.998Z,4.75
2019-01-15T06:45:18.401Z,4.77
2019-01-15T06:47:47.257Z,4.91
2019-01-15T06:50:16.376Z,4.87
2019-01-15T06:52:45.485Z,4.90
2019-01-15T06:55:16.471Z,5.00
2019-01-15T06:57:45.078Z,5.08
2019-01-15T07:00:19.394Z,5.37
2019-01-15T07:02:48.099Z,5.47
2019-01-15T07:05:16.757Z,5.39
2019-01-15T07:07:45.394Z,5.27
2019-01-15T07:10:17.287Z,5.17
2019-01-15T07:12:46.069Z,4.98
2019-01-15T07:15:15.160Z,4.98
2019-01-15T07:17:43.748Z,4.98
2019-01-15T07:20:14.939Z,5.15
2019-01-15T07:22:43.530Z,5.17
2019-01-15T07:25:18.027Z,5.25
2019-01-15T07:27:46.623Z,5.39
2019-01-15T07:30:20.991Z,5.51
2019-01-15T07:32:49.688Z,5.60
2019-01-15T07:35:18.240Z,5.75
2019-01-15T07:37:46.779Z,5.97
2019-01-15T07:40:15.443Z,5.88
2019-01-15T07:42:44.005Z,5.65
2019-01-15T07:45:14.088Z,5.59
2019-01-15T07:47:42.966Z,5.45
2019-01-15T07:50:14.744Z,5.41
2019-01-15T07:52:43.832Z,5.46
2019-01-15T07:55:15.072Z,5.60
2019-01-15T07:57:43.674Z,5.61
2019-01-15T08:00:17.748Z,5.62
2019-01-15T08:02:46.470Z,5.63
2019-01-15T08:05:17.580Z,5.66
2019-01-15T08:07:46.510Z,5.80
2019-01-15T08:10:16.998Z,5.97
2019-01-15T08:12:45.875Z,6.22
2019-01-15T08:15:28.292Z,6.18
2019-01-15T08:17:56.901Z,6.09
2019-01-15T08:20:25.489Z,6.03
2019-01-15T08:22:54.084Z,5.86
2019-01-15T08:25:22.979Z,5.80
2019-01-15T08:27:51.628Z,5.84
2019-01-15T08:30:25.434Z,5.91
2019-01-15T08:32:54.070Z,5.98
2019-01-15T08:35:23.566Z,6.12
2019-01-15T08:37:52.156Z,6.18
2019-01-15T08:40:20.791Z,6.12
2019-01-15T08:42:49.524Z,6.08
2019-01-15T08:45:18.857Z,6.20
2019-01-15T08:47:51.744Z,6.40
2019-01-15T08:50:26.229Z,6.71
2019-01-15T08:52:54.953Z,6.52
2019-01-15T08:55:23.687Z,6.31
2019-01-15T08:57:52.273Z,6.10
2019-01-15T09:00:20.867Z,5.99
2019-01-15T09:02:49.444Z,5.98
2019-01-15T09:05:18.147Z,6.17
2019-01-15T09:07:46.733Z,6.20
2019-01-15T09:10:17.280Z,6.35
2019-01-15T09:12:46.088Z,6.40
2019-01-15T09:15:20.019Z,6.49
2019-01-15T09:17:48.658Z,6.52
2019-01-15T09:20:19.638Z,6.68
2019-01-15T09:22:48.503Z,6.86
2019-01-15T09:25:17.638Z,7.20
2019-01-15T09:27:46.317Z,7.13
2019-01-15T09:30:20.483Z,6.99
2019-01-15T09:32:49.293Z,6.81
2019-01-15T09:35:18.025Z,6.73
2019-01-15T09:37:47.515Z,6.75
2019-01-15T09:40:21.234Z,6.81
2019-01-15T09:42:49.886Z,6.92
2019-01-15T09:45:20.728Z,6.99
2019-01-15T09:47:53.818Z,6.97
2019-01-15T09:50:22.431Z,6.97
2019-01-15T09:52:51.695Z,7.02
2019-01-15T09:55:20.302Z,7.07
2019-01-15T09:57:48.856Z,7.27
2019-01-15T10:00:19.495Z,7.68
2019-01-15T10:02:48.484Z,7.70
2019-01-15T10:05:17.026Z,7.62
2019-01-15T10:07:45.823Z,7.43
2019-01-15T10:10:16.146Z,7.30
2019-01-15T10:12:44.955Z,7.25
2019-01-15T10:15:16.464Z,7.23
2019-01-15T10:17:45.220Z,7.29
2019-01-15T10:20:15.925Z,7.40
2019-01-15T10:22:44.791Z,7.50
2019-01-15T10:25:15.258Z,7.50
2019-01-15T10:27:44.595Z,7.51
2019-01-15T10:30:29.665Z,7.62
2019-01-15T10:33:04.019Z,7.65
2019-01-15T10:35:50.244Z,7.80
2019-01-15T10:38:18.800Z,7.87
2019-01-15T10:40:47.727Z,7.64
2019-01-15T10:43:16.495Z,7.44
2019-01-15T10:45:45.070Z,7.23
2019-01-15T10:48:13.688Z,7.21
2019-01-15T10:50:42.276Z,7.27
2019-01-15T10:53:10.992Z,7.36
2019-01-15T10:55:39.619Z,7.48
2019-01-15T10:58:08.312Z,7.53
2019-01-15T11:00:36.943Z,7.60
2019-01-15T11:03:05.778Z,7.69
2019-01-15T11:05:34.359Z,7.77
2019-01-15T11:08:03.434Z,7.88
2019-01-15T11:10:32.032Z,8.11
2019-01-15T11:13:00.648Z,8.33
2019-01-15T11:15:29.158Z,8.22
2019-01-15T11:17:57.787Z,8.10
2019-01-15T11:20:26.373Z,8.03
2019-01-15T11:22:55.542Z,7.95
2019-01-15T11:25:24.227Z,7.89
2019-01-15T11:27:52.848Z,7.88
2019-01-15T11:30:22.459Z,7.85
2019-01-15T11:32:51.102Z,7.86
2019-01-15T11:35:19.611Z,7.90
2019-01-15T11:37:48.181Z,7.95
2019-01-15T11:40:18.478Z,8.04
2019-01-15T11:42:47.172Z,8.10
2019-01-15T11:45:19.959Z,8.22
2019-01-15T11:47:50.224Z,8.53
2019-01-15T11:50:23.090Z,8.41
2019-01-15T11:52:51.873Z,8.18
2019-01-15T11:55:21.388Z,8.04
2019-01-15T11:57:50.270Z,7.90
2019-01-15T12:00:31.947Z,7.89
2019-01-15T12:03:02.178Z,7.78
2019-01-15T12:05:41.318Z,7.86
2019-01-15T12:08:11.499Z,7.82
2019-01-15T12:11:00.265Z,7.79
2019-01-15T12:13:33.295Z,7.75
2019-01-15T12:16:03.572Z,7.85
2019-01-15T12:18:51.908Z,7.95
2019-01-15T12:21:30.862Z,8.19
2019-01-15T12:24:06.997Z,8.38
2019-01-15T12:26:43.001Z,8.31
2019-01-15T12:29:28.441Z,8.13
2019-01-15T12:31:58.650Z,8.15
2019-01-15T12:34:34.583Z,8.10
2019-01-15T12:37:21.313Z,8.00
2019-01-15T12:40:07.963Z,8.03
2019-01-15T12:42:44.008Z,8.06
2019-01-15T12:45:22.974Z,8.14
2019-01-15T12:48:02.196Z,8.16
2019-01-15T12:50:35.027Z,8.14
2019-01-15T12:53:20.329Z,8.13
2019-01-15T12:55:53.151Z,8.27
2019-01-15T12:58:39.758Z,8.50
2019-01-15T13:01:09.883Z,8.49
2019-01-15T13:03:56.398Z,8.35
2019-01-15T13:06:41.649Z,8.19
2019-01-15T13:09:18.187Z,8.22
2019-01-15T13:11:48.436Z,8.24
2019-01-15T13:14:21.506Z,8.19
2019-01-15T13:16:57.635Z,8.19
2019-01-15T13:19:37.436Z,8.22
2019-01-15T13:22:24.190Z,8.23
2019-01-15T13:24:54.381Z,8.35
2019-01-15T13:27:24.594Z,8.31
2019-01-15T13:30:01.003Z,8.28
2019-01-15T13:32:37.034Z,8.41
2019-01-15T13:35:13.934Z,8.66
2019-01-15T13:37:46.916Z,8.55
2019-01-15T13:40:17.173Z,8.26
2019-01-15T13:42:49.818Z,8.11
2019-01-15T13:45:28.997Z,7.91
2019-01-15T13:48:01.998Z,7.86
2019-01-15T13:50:38.256Z,7.94
2019-01-15T13:53:08.489Z,7.95
2019-01-15T13:55:44.564Z,8.02
2019-01-15T13:58:31.008Z,8.07
2019-01-15T14:01:13.394Z,8.13
2019-01-15T14:03:46.402Z,8.10
2019-01-15T14:06:22.736Z,8.15
2019-01-15T14:09:11.205Z,8.29
2019-01-15T14:11:41.447Z,8.33
2019-01-15T14:14:30.196Z,8.12
2019-01-15T14:17:00.418Z,7.92
2019-01-15T14:19:30.731Z,7.79
2019-01-15T14:22:17.066Z,7.67
2019-01-15T14:25:03.552Z,7.51
2019-01-15T14:27:33.808Z,7.54
2019-01-15T14:30:20.127Z,7.59
2019-01-15T14:33:06.976Z,7.72
2019-01-15T14:35:39.959Z,7.78
2019-01-15T14:38:13.453Z,7.82
2019-01-15T14:40:46.723Z,7.82
2019-01-15T14:43:19.696Z,7.95
2019-01-15T14:46:00.454Z,8.11
2019-01-15T14:48:36.837Z,7.98
2019-01-15T14:51:07.163Z,7.91
2019-01-15T14:53:49.516Z,7.80
2019-01-15T14:56:22.746Z,7.74
2019-01-15T14:58:55.757Z,7.60
2019-01-15T15:01:29.165Z,7.66
2019-01-15T15:04:16.346Z,7.65
2019-01-15T15:06:52.309Z,7.74
2019-01-15T15:09:38.966Z,7.81
2019-01-15T15:12:18.071Z,7.73
2019-01-15T15:14:48.316Z,7.71
2019-01-15T15:17:18.538Z,7.89
2019-01-15T15:19:48.846Z,8.02
2019-01-15T15:22:35.572Z,8.09
2019-01-15T15:25:13.968Z,7.98
2019-01-15T15:27:49.993Z,7.77
2019-01-15T15:30:26.312Z,7.60
2019-01-15T15:32:56.519Z,7.48
2019-01-15T15:35:43.160Z,7.49
2019-01-15T15:38:29.844Z,7.55
2019-01-15T15:41:09.813Z,7.62
2019-01-15T15:43:40.073Z,7.54
2019-01-15T15:46:12.662Z,7.58
2019-01-15T15:48:42.926Z,7.65
2019-01-15T15:51:13.169Z,7.67
2019-01-15T15:53:58.810Z,8.04
2019-01-15T15:56:45.408Z,8.04
2019-01-15T15:59:32.425Z,7.98
2019-01-15T16:02:19.171Z,7.79
2019-01-15T16:04:49.423Z,7.69
2019-01-15T16:07:25.905Z,7.60
2019-01-15T16:09:59.260Z,7.57
2019-01-15T16:12:41.743Z,7.64
2019-01-15T16:15:30.592Z,7.58
2019-01-15T16:18:09.957Z,7.62
2019-01-15T16:20:56.511Z,7.63
2019-01-15T16:23:33.023Z,7.63
2019-01-15T16:26:03.251Z,7.66
2019-01-15T16:28:36.422Z,7.75
2019-01-15T16:31:22.176Z,7.86
2019-01-15T16:33:55.224Z,7.97
2019-01-15T16:36:40.345Z,7.85
2019-01-15T16:39:14.068Z,7.72
2019-01-15T16:41:50.147Z,7.55
2019-01-15T16:44:20.402Z,7.55
2019-01-15T16:46:50.649Z,7.44
2019-01-15T16:49:20.852Z,7.55
2019-01-15T16:51:51.077Z,7.60
2019-01-15T16:54:27.382Z,7.69
2019-01-15T16:57:16.021Z,7.58
2019-01-15T16:59:52.215Z,7.60
2019-01-15T17:02:38.863Z,7.69
2019-01-15T17:05:19.950Z,7.81
2019-01-15T17:07:55.572Z,8.15
2019-01-15T17:10:31.841Z,8.10
2019-01-15T17:13:04.775Z,7.90
2019-01-15T17:15:37.900Z,7.72
2019-01-15T17:18:10.864Z,7.72
2019-01-15T17:20:43.848Z,7.67
2019-01-15T17:23:19.523Z,7.52
2019-01-15T17:26:06.056Z,7.62
2019-01-15T17:28:39.167Z,7.61
2019-01-15T17:31:18.710Z,7.66
2019-01-15T17:33:48.930Z,7.61
2019-01-15T17:36:37.561Z,7.64
2019-01-15T17:39:25.932Z,7.68
2019-01-15T17:42:01.844Z,7.86
2019-01-15T17:44:41.336Z,8.04
2019-01-15T17:47:14.537Z,7.90
2019-01-15T17:49:50.832Z,7.78
2019-01-15T17:52:21.104Z,7.71
2019-01-15T17:55:03.674Z,7.64
2019-01-15T17:57:52.185Z,7.64
2019-01-15T18:00:28.483Z,7.68
2019-01-15T18:03:15.153Z,7.68
2019-01-15T18:05:51.420Z,7.68
2019-01-15T18:08:36.994Z,7.58
2019-01-15T18:11:10.042Z,7.68
2019-01-15T18:13:56.632Z,7.72
2019-01-15T18:16:29.582Z,7.83
2019-01-15T18:18:59.846Z,8.02
2019-01-15T18:21:30.079Z,7.90
2019-01-15T18:24:03.244Z,7.78
2019-01-15T18:26:39.201Z,7.68
2019-01-15T18:29:15.226Z,7.53
2019-01-15T18:31:57.372Z,7.44
2019-01-15T18:34:30.442Z,7.40
2019-01-15T18:37:03.619Z,7.47
2019-01-15T18:39:52.026Z,7.49
2019-01-15T18:42:22.250Z,7.66
2019-01-15T18:45:10.985Z,7.68
2019-01-15T18:47:55.951Z,7.73
2019-01-15T18:50:41.065Z,7.81
2019-01-15T18:53:14.206Z,7.95
2019-01-15T18:55:47.408Z,7.92
2019-01-15T18:58:33.898Z,7.83
2019-01-15T19:01:22.193Z,7.75
2019-01-15T19:03:55.342Z,7.60
2019-01-15T19:06:28.365Z,7.44
2019-01-15T19:09:07.264Z,7.38
2019-01-15T19:11:53.693Z,7.49
2019-01-15T19:14:26.747Z,7.45
2019-01-15T19:17:13.088Z,7.50
2019-01-15T19:19:58.540Z,7.51
2019-01-15T19:22:47.267Z,7.57
2019-01-15T19:25:17.566Z,7.59
2019-01-15T19:28:02.806Z,7.78
2019-01-15T19:30:33.931Z,8.03
2019-01-15T19:33:22.464Z,7.92
2019-01-15T19:35:58.721Z,7.78
2019-01-15T19:38:29.001Z,7.60
2019-01-15T19:40:59.205Z,7.52
2019-01-15T19:43:38.184Z,7.49
2019-01-15T19:46:23.321Z,7.55
2019-01-15T19:49:02.698Z,7.63
2019-01-15T19:51:36.023Z,7.68
2019-01-15T19:54:22.586Z,7.72
2019-01-15T19:57:02.037Z,7.69
2019-01-15T19:59:44.220Z,7.73
2019-01-15T20:02:26.756Z,7.85
2019-01-15T20:05:02.992Z,8.09
2019-01-15T20:07:35.957Z,8.08
2019-01-15T20:10:24.959Z,7.95
2019-01-15T20:13:10.555Z,7.76
2019-01-15T20:15:56.107Z,7.57
2019-01-15T20:18:29.353Z,7.42
2019-01-15T20:20:59.611Z,7.44
2019-01-15T20:23:35.652Z,7.57
2019-01-15T20:26:11.974Z,7.61
2019-01-15T20:28:58.385Z,7.64
2019-01-15T20:31:34.706Z,7.70
2019-01-15T20:34:04.994Z,7.80
2019-01-15T20:36:35.252Z,7.89
2019-01-15T20:39:12.697Z,8.03
2019-01-15T20:41:42.980Z,8.11
2019-01-15T20:44:13.237Z,7.95
2019-01-15T20:46:43.496Z,7.82
2019-01-15T20:49:22.898Z,7.74
2019-01-15T20:51:53.102Z,7.60
2019-01-15T20:54:23.333Z,7.61
2019-01-15T20:56:53.515Z,7.54
2019-01-15T20:59:23.785Z,7.62
2019-01-15T21:01:54.051Z,7.67
2019-01-15T21:04:40.352Z,7.72
2019-01-15T21:07:26.975Z,7.84
2019-01-15T21:10:00.156Z,7.92
2019-01-15T21:12:30.359Z,7.94
2019-01-15T21:15:00.597Z,8.13
2019-01-15T21:17:33.141Z,8.36
2019-01-15T21:20:14.861Z,8.15
2019-01-15T21:22:50.991Z,7.91
2019-01-15T21:25:37.471Z,7.78
2019-01-15T21:28:10.846Z,7.64
2019-01-15T21:30:50.644Z,7.58
2019-01-15T21:33:18.701Z,7.60
2019-01-15T21:35:51.908Z,7.79
2019-01-15T21:38:24.882Z,7.84
2019-01-15T21:40:58.025Z,7.88
2019-01-15T21:43:31.031Z,7.83
2019-01-15T21:46:16.594Z,7.83
2019-01-15T21:48:46.835Z,7.91
2019-01-15T21:51:17.116Z,8.18
2019-01-15T21:54:03.660Z,8.17
2019-01-15T21:56:33.771Z,7.94
2019-01-15T21:59:03.987Z,7.74
2019-01-15T22:01:50.627Z,7.69
2019-01-15T22:04:27.156Z,7.54
2019-01-15T22:07:04.632Z,7.48
2019-01-15T22:09:50.853Z,7.45
2019-01-15T22:12:37.267Z,7.53
2019-01-15T22:15:16.056Z,7.57
2019-01-15T22:17:47.557Z,7.65
2019-01-15T22:20:26.687Z,7.73
2019-01-15T22:22:57.003Z,7.82
2019-01-15T22:25:30.311Z,7.86
2019-01-15T22:28:12.901Z,8.10
2019-01-15T22:30:45.791Z,7.95
2019-01-15T22:33:15.990Z,7.81
2019-01-15T22:35:55.240Z,7.72
2019-01-15T22:38:43.487Z,7.66
2019-01-15T22:41:30.174Z,7.57
2019-01-15T22:44:00.425Z,7.53
2019-01-15T22:46:47.128Z,7.56
2019-01-15T22:49:17.295Z,7.58
2019-01-15T22:52:03.734Z,7.63
2019-01-15T22:54:33.959Z,7.72
2019-01-15T22:57:19.304Z,7.71
2019-01-15T22:59:52.424Z,7.80
2019-01-15T23:02:31.970Z,8.01
2019-01-15T23:05:02.253Z,8.01
2019-01-15T23:07:32.304Z,7.93
2019-01-15T23:10:05.345Z,7.86
2019-01-15T23:12:50.899Z,7.78
2019-01-15T23:15:30.419Z,7.71
2019-01-15T23:18:15.722Z,7.59
2019-01-15T23:21:02.408Z,7.63
2019-01-15T23:23:32.605Z,7.68
2019-01-15T23:26:08.868Z,7.70
2019-01-15T23:28:55.360Z,7.69
2019-01-15T23:31:28.499Z,7.72
2019-01-15T23:34:01.398Z,7.79
2019-01-15T23:36:48.053Z,7.98
2019-01-15T23:39:34.783Z,8.16
2019-01-15T23:42:04.995Z,8.01
2019-01-15T23:44:38.361Z,7.84
2019-01-15T23:47:14.675Z,7.70
2019-01-15T23:50:02.905Z,7.61
2019-01-15T23:52:33.188Z,7.55
2019-01-15T23:55:09.037Z,7.58
2019-01-15T23:57:42.106Z,7.65
